createdAt,value
2022-08-20T00:01:17.131Z,24.39
2022-08-20T00:04:14.489Z,24.30
2022-08-20T00:07:12.355Z,24.23
2022-08-20T00:10:09.978Z,24.30
2022-08-20T00:13:07.816Z,24.35
2022-08-20T00:16:05.575Z,24.37
2022-08-20T00:19:05.524Z,24.14
2022-08-20T00:22:03.101Z,23.96
2022-08-20T00:24:59.799Z,24.23
2022-08-20T00:27:57.650Z,24.23
2022-08-20T00:30:54.701Z,24.22
2022-08-20T00:33:52.357Z,24.23
2022-08-20T00:36:50.048Z,24.30
2022-08-20T00:39:47.105Z,24.27
2022-08-20T00:43:04.290Z,24.17
2022-08-20T00:46:04.198Z,24.09
2022-08-20T00:49:03.142Z,23.59
2022-08-20T00:52:07.566Z,23.44
2022-08-20T00:55:05.332Z,23.78
2022-08-20T00:58:09.005Z,23.94
2022-08-20T01:01:06.243Z,23.93
2022-08-20T01:04:02.958Z,23.89
2022-08-20T01:07:00.692Z,24.09
2022-08-20T01:09:59.522Z,24.13
2022-08-20T01:12:59.435Z,24.24
2022-08-20T01:15:57.266Z,24.22
2022-08-20T01:18:54.106Z,24.17
2022-08-20T01:21:52.011Z,24.06
2022-08-20T01:24:48.812Z,24.19
2022-08-20T01:27:45.754Z,24.19
2022-08-20T01:30:42.707Z,24.20
2022-08-20T01:33:40.543Z,24.18
2022-08-20T01:36:45.917Z,24.20
2022-08-20T01:39:44.927Z,24.20
2022-08-20T01:42:58.542Z,24.20
2022-08-20T01:45:57.165Z,24.05
2022-08-20T01:48:54.124Z,23.89
2022-08-20T01:51:52.497Z,24.07
2022-08-20T01:54:50.054Z,24.18
2022-08-20T01:57:48.493Z,24.18
2022-08-20T02:00:48.259Z,24.15
2022-08-20T02:03:45.266Z,24.02
2022-08-20T02:06:56.130Z,24.11
2022-08-20T02:09:55.267Z,24.22
2022-08-20T02:12:53.111Z,24.29
2022-08-20T02:15:50.923Z,24.35
2022-08-20T02:18:49.585Z,24.29
2022-08-20T02:21:49.791Z,24.21
2022-08-20T02:24:47.480Z,24.29
2022-08-20T02:27:46.035Z,24.27
2022-08-20T02:30:45.258Z,24.17
2022-08-20T02:33:42.418Z,24.18
2022-08-20T02:37:00.193Z,24.17
2022-08-20T02:39:57.437Z,24.20
2022-08-20T02:42:55.074Z,24.20
2022-08-20T02:45:52.285Z,24.18
2022-08-20T02:48:48.973Z,24.19
2022-08-20T02:51:47.157Z,24.08
2022-08-20T02:54:43.883Z,23.89
2022-08-20T02:57:41.210Z,23.50
2022-08-20T03:00:38.769Z,23.70
2022-08-20T03:03:36.059Z,23.71
2022-08-20T03:06:33.114Z,23.77
2022-08-20T03:09:30.337Z,23.78
2022-08-20T03:12:27.069Z,23.86
2022-08-20T03:15:24.017Z,23.80
2022-08-20T03:18:21.279Z,23.96
2022-08-20T03:21:18.369Z,23.95
2022-08-20T03:24:15.234Z,23.86
2022-08-20T03:27:13.665Z,23.70
2022-08-20T03:30:13.255Z,23.75
2022-08-20T03:33:10.508Z,23.81
2022-08-20T03:36:08.485Z,23.81
2022-08-20T03:39:07.112Z,23.78
2022-08-20T03:42:04.837Z,23.75
2022-08-20T03:45:08.890Z,23.80
2022-08-20T03:48:08.660Z,23.73
2022-08-20T03:51:07.135Z,23.73
2022-08-20T03:54:04.463Z,23.68
2022-08-20T03:57:02.933Z,23.70
2022-08-20T04:00:13.022Z,23.43
2022-08-20T04:03:10.415Z,23.51
2022-08-20T04:06:07.549Z,23.68
2022-08-20T04:09:06.041Z,23.59
2022-08-20T04:12:04.209Z,23.69
2022-08-20T04:15:01.053Z,23.62
2022-08-20T04:17:58.951Z,23.57
2022-08-20T04:20:56.286Z,23.64
2022-08-20T04:23:53.075Z,23.66
2022-08-20T04:26:49.906Z,23.67
2022-08-20T04:29:47.530Z,23.54
2022-08-20T04:32:45.468Z,23.66
2022-08-20T04:35:43.281Z,23.67
2022-08-20T04:38:48.393Z,23.69
2022-08-20T04:41:48.252Z,23.58
2022-08-20T04:44:45.282Z,23.60
2022-08-20T04:47:42.126Z,23.56
2022-08-20T04:50:39.789Z,23.47
2022-08-20T04:53:37.238Z,23.46
2022-08-20T04:56:38.737Z,23.48
2022-08-20T04:59:36.320Z,23.47
2022-08-20T05:02:33.035Z,23.20
2022-08-20T05:05:30.969Z,23.03
2022-08-20T05:08:28.179Z,22.92
2022-08-20T05:11:33.433Z,22.87
2022-08-20T05:14:33.257Z,22.94
2022-08-20T05:17:30.643Z,22.97
2022-08-20T05:20:32.138Z,23.03
2022-08-20T05:23:29.160Z,23.09
2022-08-20T05:26:26.576Z,23.14
2022-08-20T05:29:24.642Z,23.03
2022-08-20T05:32:22.483Z,22.98
2022-08-20T05:35:19.529Z,23.08
2022-08-20T05:38:18.129Z,23.20
2022-08-20T05:41:28.422Z,23.19
2022-08-20T05:44:27.138Z,23.33
2022-08-20T05:47:29.198Z,23.25
2022-08-20T05:50:33.242Z,23.25
2022-08-20T05:53:30.534Z,23.32
2022-08-20T05:56:30.565Z,23.28
2022-08-20T05:59:28.986Z,23.25
2022-08-20T06:02:44.640Z,23.12
2022-08-20T06:05:42.385Z,23.08
2022-08-20T06:08:38.934Z,22.93
2022-08-20T06:11:37.435Z,22.85
2022-08-20T06:14:35.383Z,22.87
2022-08-20T06:17:39.401Z,22.93
2022-08-20T06:20:38.158Z,22.90
2022-08-20T06:23:56.488Z,22.68
2022-08-20T06:27:14.379Z,22.60
2022-08-20T06:30:12.346Z,22.71
2022-08-20T06:33:09.341Z,22.76
2022-08-20T06:36:07.155Z,22.74
2022-08-20T06:39:04.194Z,22.73
2022-08-20T06:42:01.109Z,22.69
2022-08-20T06:44:59.707Z,22.59
2022-08-20T06:47:58.970Z,22.52
2022-08-20T06:50:56.586Z,22.47
2022-08-20T06:53:53.280Z,22.38
2022-08-20T06:56:50.198Z,22.24
2022-08-20T06:59:54.318Z,22.21
2022-08-20T07:02:51.324Z,22.43
2022-08-20T07:05:48.493Z,22.29
2022-08-20T07:08:45.379Z,22.31
2022-08-20T07:11:42.293Z,22.40
2022-08-20T07:14:39.573Z,22.43
2022-08-20T07:17:37.118Z,22.50
2022-08-20T07:20:36.006Z,22.43
2022-08-20T07:23:33.247Z,22.47
2022-08-20T07:26:30.086Z,22.39
2022-08-20T07:29:47.658Z,22.29
2022-08-20T07:32:45.660Z,22.16
2022-08-20T07:35:49.052Z,22.27
2022-08-20T07:38:47.464Z,22.33
2022-08-20T07:41:51.571Z,22.35
2022-08-20T07:44:54.162Z,22.45
2022-08-20T07:47:53.632Z,22.64
2022-08-20T07:50:50.427Z,22.74
2022-08-20T07:53:47.736Z,22.83
2022-08-20T07:56:45.280Z,22.90
2022-08-20T07:59:42.551Z,23.10
2022-08-20T08:02:40.151Z,22.90
2022-08-20T08:05:39.123Z,22.81
2022-08-20T08:08:37.003Z,23.03
2022-08-20T08:11:35.466Z,23.08
2022-08-20T08:14:32.737Z,22.81
2022-08-20T08:17:31.887Z,22.53
2022-08-20T08:20:29.526Z,22.43
2022-08-20T08:23:31.661Z,22.42
2022-08-20T08:26:29.589Z,22.46
2022-08-20T08:29:26.666Z,22.48
2022-08-20T08:32:24.631Z,22.37
2022-08-20T08:35:22.874Z,22.42
2022-08-20T08:38:22.501Z,22.33
2022-08-20T08:41:20.333Z,22.14
2022-08-20T08:44:23.282Z,22.37
2022-08-20T08:47:26.502Z,22.58
2022-08-20T08:50:49.866Z,22.64
2022-08-20T08:53:48.684Z,22.81
2022-08-20T08:56:50.099Z,22.91
2022-08-20T09:00:12.272Z,23.05
2022-08-20T09:03:11.389Z,22.94
2022-08-20T09:06:08.538Z,23.26
2022-08-20T09:09:05.397Z,23.61
2022-08-20T09:12:11.790Z,23.76
2022-08-20T09:15:10.034Z,23.53
2022-08-20T09:18:07.998Z,23.21
2022-08-20T09:21:06.405Z,23.19
2022-08-20T09:24:04.882Z,23.41
2022-08-20T09:27:02.487Z,23.63
2022-08-20T09:29:59.459Z,23.76
2022-08-20T09:32:59.401Z,23.92
2022-08-20T09:35:56.357Z,24.04
2022-08-20T09:38:53.643Z,23.75
2022-08-20T09:41:50.409Z,23.89
2022-08-20T09:44:47.503Z,24.06
2022-08-20T09:48:01.928Z,24.11
2022-08-20T09:50:59.473Z,24.13
2022-08-20T09:53:57.308Z,24.14
2022-08-20T09:56:56.254Z,24.05
2022-08-20T09:59:57.128Z,24.14
2022-08-20T10:02:54.659Z,23.87
2022-08-20T10:05:51.485Z,23.86
2022-08-20T10:08:48.955Z,24.08
2022-08-20T10:11:46.702Z,24.08
2022-08-20T10:14:43.573Z,23.89
2022-08-20T10:17:41.396Z,23.67
2022-08-20T10:20:38.751Z,23.68
2022-08-20T10:23:36.484Z,23.91
2022-08-20T10:26:33.475Z,24.01
2022-08-20T10:29:30.479Z,23.73
2022-08-20T10:32:27.720Z,23.84
2022-08-20T10:35:24.970Z,23.72
2022-08-20T10:38:22.379Z,23.71
2022-08-20T10:41:19.993Z,23.63
2022-08-20T10:44:17.813Z,23.91
2022-08-20T10:47:15.459Z,23.99
2022-08-20T10:50:14.957Z,23.99
2022-08-20T10:53:13.108Z,24.06
2022-08-20T10:56:15.038Z,24.15
2022-08-20T10:59:12.501Z,24.29
2022-08-20T11:02:09.632Z,24.33
2022-08-20T11:05:06.593Z,24.29
2022-08-20T11:08:04.200Z,24.16
2022-08-20T11:11:01.420Z,24.27
2022-08-20T11:13:58.364Z,24.49
2022-08-20T11:16:56.298Z,24.61
2022-08-20T11:19:53.973Z,24.61
2022-08-20T11:22:52.154Z,24.18
2022-08-20T11:25:49.645Z,24.01
2022-08-20T11:28:46.370Z,23.95
2022-08-20T11:31:43.503Z,24.03
2022-08-20T11:34:40.724Z,24.10
2022-08-20T11:37:38.214Z,24.13
2022-08-20T11:40:35.351Z,24.28
2022-08-20T11:43:32.326Z,24.29
2022-08-20T11:46:29.921Z,24.63
2022-08-20T11:49:27.273Z,24.68
2022-08-20T11:52:24.659Z,24.72
2022-08-20T11:55:28.983Z,24.91
2022-08-20T11:58:27.265Z,25.12
2022-08-20T12:01:24.763Z,25.11
2022-08-20T12:04:21.885Z,25.12
2022-08-20T12:07:23.845Z,25.09
2022-08-20T12:10:23.241Z,24.97
2022-08-20T12:13:20.795Z,24.71
2022-08-20T12:16:22.573Z,24.84
2022-08-20T12:19:19.753Z,24.91
2022-08-20T12:22:24.418Z,25.13
2022-08-20T12:25:22.432Z,25.19
2022-08-20T12:28:23.008Z,25.35
2022-08-20T12:31:23.590Z,25.29
2022-08-20T12:34:20.729Z,25.14
2022-08-20T12:37:19.613Z,25.00
2022-08-20T12:40:22.705Z,25.15
2022-08-20T12:43:28.021Z,25.19
2022-08-20T12:46:25.794Z,25.28
2022-08-20T12:49:22.403Z,25.18
2022-08-20T12:52:20.227Z,25.20
2022-08-20T12:55:18.866Z,24.88
2022-08-20T12:58:16.964Z,24.76
2022-08-20T13:01:15.818Z,24.83
2022-08-20T13:04:12.696Z,24.82
2022-08-20T13:07:11.574Z,25.06
2022-08-20T13:10:10.501Z,25.41
2022-08-20T13:13:07.932Z,25.76
2022-08-20T13:16:04.708Z,25.93
2022-08-20T13:19:01.930Z,25.93
2022-08-20T13:21:59.073Z,25.80
2022-08-20T13:24:56.601Z,25.38
2022-08-20T13:27:57.309Z,25.21
2022-08-20T13:30:54.907Z,25.19
2022-08-20T13:33:54.475Z,25.30
2022-08-20T13:36:51.517Z,25.39
2022-08-20T13:39:49.352Z,25.47
2022-08-20T13:42:46.728Z,25.41
2022-08-20T13:45:43.951Z,25.42
2022-08-20T13:48:40.389Z,25.34
2022-08-20T13:51:37.497Z,25.19
2022-08-20T13:54:34.463Z,25.49
2022-08-20T13:57:32.640Z,25.39
2022-08-20T14:00:31.819Z,25.39
2022-08-20T14:03:29.753Z,25.38
2022-08-20T14:06:26.679Z,25.30
2022-08-20T14:09:23.814Z,25.43
2022-08-20T14:12:23.114Z,25.51
2022-08-20T14:15:20.684Z,25.32
2022-08-20T14:18:17.592Z,25.19
2022-08-20T14:21:14.628Z,25.50
2022-08-20T14:24:11.877Z,25.82
2022-08-20T14:27:09.960Z,25.96
2022-08-20T14:30:08.937Z,26.20
2022-08-20T14:33:05.679Z,26.04
2022-08-20T14:36:02.888Z,26.12
2022-08-20T14:38:59.516Z,26.02
2022-08-20T14:41:57.173Z,26.07
2022-08-20T14:44:58.842Z,25.91
2022-08-20T14:47:59.747Z,25.77
2022-08-20T14:50:56.481Z,25.66
2022-08-20T14:53:53.952Z,25.58
2022-08-20T14:56:50.972Z,25.78
2022-08-20T14:59:47.941Z,25.75
2022-08-20T15:02:45.554Z,25.94
2022-08-20T15:05:42.782Z,26.03
2022-08-20T15:08:41.871Z,26.30
2022-08-20T15:11:40.913Z,26.33
2022-08-20T15:14:39.109Z,26.51
2022-08-20T15:17:36.825Z,26.37
2022-08-20T15:20:34.816Z,26.36
2022-08-20T15:23:31.622Z,26.28
2022-08-20T15:26:29.661Z,26.29
2022-08-20T15:29:26.665Z,26.41
2022-08-20T15:32:23.523Z,26.49
2022-08-20T15:35:20.578Z,26.62
2022-08-20T15:38:17.501Z,26.44
2022-08-20T15:41:14.927Z,26.51
2022-08-20T15:44:12.052Z,26.57
2022-08-20T15:47:43.972Z,26.72
2022-08-20T15:51:00.653Z,26.95
2022-08-20T15:54:18.172Z,26.92
2022-08-20T15:57:41.102Z,27.05
2022-08-20T16:01:24.259Z,27.09
2022-08-20T16:04:31.330Z,27.00
2022-08-20T16:07:53.797Z,26.64
2022-08-20T16:11:28.962Z,26.12
2022-08-20T16:14:27.421Z,26.01
2022-08-20T16:17:31.737Z,26.01
2022-08-20T16:20:35.974Z,25.88
2022-08-20T16:23:33.601Z,25.87
2022-08-20T16:26:59.595Z,25.92
2022-08-20T16:30:08.723Z,25.86
2022-08-20T16:33:12.710Z,25.93
2022-08-20T16:36:23.785Z,25.93
2022-08-20T16:39:27.855Z,26.05
2022-08-20T16:42:24.971Z,25.97
2022-08-20T16:45:25.500Z,25.86
2022-08-20T16:48:22.880Z,26.11
2022-08-20T16:51:51.980Z,26.09
2022-08-20T16:54:49.876Z,26.02
2022-08-20T16:57:47.861Z,26.06
2022-08-20T17:00:45.627Z,25.91
2022-08-20T17:03:49.862Z,25.97
2022-08-20T17:06:48.351Z,26.07
2022-08-20T17:09:48.738Z,26.09
2022-08-20T17:13:03.711Z,26.17
2022-08-20T17:16:02.746Z,26.27
2022-08-20T17:19:11.679Z,26.25
2022-08-20T17:22:09.827Z,26.25
2022-08-20T17:25:30.878Z,26.25
2022-08-20T17:28:30.828Z,26.15
2022-08-20T17:31:38.915Z,26.22
2022-08-20T17:34:50.436Z,26.02
2022-08-20T17:37:51.228Z,26.08
2022-08-20T17:40:50.658Z,26.00
2022-08-20T17:43:47.709Z,26.04
2022-08-20T17:46:46.282Z,26.09
2022-08-20T17:50:02.319Z,26.08
2022-08-20T17:53:05.333Z,25.98
2022-08-20T17:56:28.934Z,25.96
2022-08-20T17:59:59.932Z,25.90
2022-08-20T18:02:45.624Z,25.88
2022-08-20T18:05:42.638Z,25.68
2022-08-20T18:09:17.326Z,25.48
2022-08-20T18:12:24.234Z,25.46
2022-08-20T18:15:40.907Z,25.46
2022-08-20T18:18:56.700Z,25.44
2022-08-20T18:22:04.280Z,25.50
2022-08-20T18:25:07.536Z,25.57
2022-08-20T18:28:38.377Z,25.44
2022-08-20T18:31:49.716Z,25.29
2022-08-20T18:34:48.251Z,25.15
2022-08-20T18:37:45.591Z,25.14
2022-08-20T18:40:43.325Z,25.13
2022-08-20T18:43:41.198Z,25.17
2022-08-20T18:46:54.226Z,25.22
2022-08-20T18:50:05.300Z,25.18
2022-08-20T18:53:11.146Z,25.17
2022-08-20T18:56:14.550Z,25.03
2022-08-20T18:59:17.793Z,24.86
2022-08-20T19:02:26.845Z,24.62
2022-08-20T19:05:33.225Z,24.43
2022-08-20T19:08:59.468Z,24.21
2022-08-20T19:12:02.992Z,24.18
2022-08-20T19:15:32.002Z,24.24
2022-08-20T19:18:43.071Z,24.23
2022-08-20T19:21:42.824Z,23.84
2022-08-20T19:24:44.240Z,23.86
2022-08-20T19:27:41.041Z,24.01
2022-08-20T19:30:39.926Z,24.23
2022-08-20T19:33:43.857Z,23.80
2022-08-20T19:36:43.094Z,23.39
2022-08-20T19:39:42.340Z,23.06
2022-08-20T19:42:43.204Z,22.77
2022-08-20T19:45:51.736Z,22.70
2022-08-20T19:49:20.492Z,22.75
2022-08-20T19:52:31.255Z,22.71
2022-08-20T19:55:33.549Z,22.53
2022-08-20T19:58:31.683Z,22.39
2022-08-20T20:01:29.395Z,22.21
2022-08-20T20:04:29.745Z,22.07
2022-08-20T20:07:29.516Z,21.96
2022-08-20T20:10:32.297Z,21.95
2022-08-20T20:13:37.720Z,21.82
2022-08-20T20:16:37.518Z,21.62
2022-08-20T20:19:47.852Z,21.77
2022-08-20T20:23:15.175Z,21.91
2022-08-20T20:26:15.055Z,22.10
2022-08-20T20:29:13.759Z,22.04
2022-08-20T20:32:20.569Z,22.13
2022-08-20T20:35:30.207Z,21.90
2022-08-20T20:38:28.060Z,21.45
2022-08-20T20:41:26.391Z,21.24
2022-08-20T20:44:38.196Z,21.45
2022-08-20T20:47:36.020Z,21.54
2022-08-20T20:50:36.742Z,21.65
2022-08-20T20:53:51.659Z,21.93
2022-08-20T20:57:03.137Z,22.15
2022-08-20T21:00:00.261Z,21.90
2022-08-20T21:02:57.038Z,21.59
2022-08-20T21:05:57.101Z,21.21
2022-08-20T21:08:56.040Z,20.91
2022-08-20T21:11:53.058Z,20.96
2022-08-20T21:14:50.199Z,20.98
2022-08-20T21:17:47.178Z,20.72
2022-08-20T21:20:44.059Z,20.71
2022-08-20T21:23:41.649Z,20.67
2022-08-20T21:26:39.170Z,20.70
2022-08-20T21:29:35.978Z,20.85
2022-08-20T21:32:33.183Z,20.75
2022-08-20T21:35:30.088Z,20.78
2022-08-20T21:38:28.254Z,20.71
2022-08-20T21:41:30.033Z,20.53
2022-08-20T21:44:29.696Z,20.10
2022-08-20T21:47:27.322Z,19.96
2022-08-20T21:50:24.723Z,20.13
2022-08-20T21:53:22.104Z,20.26
2022-08-20T21:56:19.339Z,20.48
2022-08-20T21:59:17.193Z,20.00
2022-08-20T22:02:13.881Z,20.31
2022-08-20T22:05:11.514Z,20.24
2022-08-20T22:08:09.375Z,20.09
2022-08-20T22:11:07.656Z,20.04
2022-08-20T22:14:09.131Z,20.04
2022-08-20T22:17:06.428Z,19.87
2022-08-20T22:20:05.260Z,19.72
2022-08-20T22:23:05.482Z,19.79
2022-08-20T22:26:03.335Z,19.62
2022-08-20T22:29:01.471Z,19.62
2022-08-20T22:31:59.214Z,19.70
2022-08-20T22:34:56.356Z,19.80
2022-08-20T22:37:53.117Z,19.71
2022-08-20T22:40:50.207Z,19.68
2022-08-20T22:43:56.546Z,19.72
2022-08-20T22:46:57.123Z,19.87
2022-08-20T22:49:54.428Z,20.63
2022-08-20T22:52:52.203Z,21.17
2022-08-20T22:55:48.980Z,21.05
2022-08-20T22:58:46.320Z,20.48
2022-08-20T23:01:47.245Z,20.02
2022-08-20T23:04:44.094Z,19.67
2022-08-20T23:07:41.724Z,20.15
2022-08-20T23:10:39.121Z,19.86
2022-08-20T23:13:36.617Z,19.33
2022-08-20T23:16:42.696Z,19.24
2022-08-20T23:19:41.635Z,19.31
2022-08-20T23:22:39.339Z,19.53
2022-08-20T23:25:36.230Z,19.39
2022-08-20T23:28:33.260Z,19.40
2022-08-20T23:31:30.011Z,19.17
2022-08-20T23:34:27.582Z,19.01
2022-08-20T23:37:25.865Z,18.95
2022-08-20T23:40:26.886Z,18.82
2022-08-20T23:43:25.286Z,18.68
2022-08-20T23:46:22.237Z,18.48
2022-08-20T23:49:19.078Z,18.26
2022-08-20T23:52:16.304Z,18.36
2022-08-20T23:55:12.962Z,19.14
2022-08-20T23:58:10.189Z,19.78
